Time;durP1;ratioP1;P1;durP2;ratioP2;P2;SDS_P1;SDS_P2;PMS_P1;PMS_P2;Temp;Humidity;BMP_temperature;BMP_pressure;BME280_temperature;BME280_humidity;BME280_pressure;Samples;Min_cycle;Max_cycle;Signal;HPM_P1;HPM_P2
2023/09/30 00:01:15;;;;;;;2.17;0.93;;;21.50;53.90;;;;;;6219537;23;20170;-90
2023/09/30 00:03:44;;;;;;;0.50;0.50;;;21.50;53.80;;;;;;6244941;23;20258;-88
2023/09/30 00:06:13;;;;;;;0.20;0.20;;;21.50;53.80;;;;;;6246126;23;20236;-91
2023/09/30 00:08:43;;;;;;;0.38;0.38;;;21.50;53.80;;;;;;6245178;23;20655;-90
2023/09/30 00:11:11;;;;;;;1.00;0.68;;;21.50;53.90;;;;;;6245878;23;20167;-89
2023/09/30 00:13:42;;;;;;;0.77;0.77;;;21.50;53.90;;;;;;6245361;23;20191;-91
2023/09/30 00:16:10;;;;;;;1.90;0.50;;;21.40;53.90;;;;;;6245725;23;20159;-90
2023/09/30 00:18:39;;;;;;;0.30;0.30;;;21.40;54.00;;;;;;6247250;23;20472;-90
2023/09/30 00:21:07;;;;;;;0.30;0.30;;;21.40;54.10;;;;;;6246047;23;20173;-91
2023/09/30 00:23:36;;;;;;;0.63;0.35;;;21.40;54.10;;;;;;6219730;23;20170;-92
2023/09/30 00:26:05;;;;;;;2.10;0.53;;;21.40;54.20;;;;;;6219427;23;20651;-91
2023/09/30 00:28:34;;;;;;;0.90;0.50;;;21.40;54.20;;;;;;6246220;23;20170;-90
2023/09/30 00:31:10;;;;;;;0.55;0.55;;;21.30;54.40;;;;;;6245966;23;20173;-90
2023/09/30 00:33:39;;;;;;;1.13;0.73;;;21.30;54.40;;;;;;6206839;23;20193;-90
2023/09/30 00:36:09;;;;;;;0.32;0.32;;;21.30;54.40;;;;;;6245486;23;20232;-90
2023/09/30 00:38:38;;;;;;;1.02;0.60;;;21.30;54.50;;;;;;6247313;23;20155;-90
2023/09/30 00:41:07;;;;;;;0.87;0.47;;;21.30;54.40;;;;;;6244631;23;20205;-90
2023/09/30 00:43:35;;;;;;;0.60;0.60;;;21.30;54.50;;;;;;6220157;23;20174;-91
2023/09/30 00:46:13;;;;;;;0.40;0.40;;;21.30;54.60;;;;;;6246038;23;20171;-90
2023/09/30 00:48:42;;;;;;;0.57;0.57;;;21.30;54.60;;;;;;6245649;23;20532;-89
2023/09/30 00:51:12;;;;;;;0.30;0.30;;;21.20;54.50;;;;;;6246121;23;20166;-89
2023/09/30 00:53:41;;;;;;;0.40;0.40;;;21.20;54.40;;;;;;6220001;23;20209;-90
2023/09/30 00:56:12;;;;;;;0.45;0.45;;;21.30;54.50;;;;;;6245906;23;20166;-90
2023/09/30 00:58:41;;;;;;;0.60;0.50;;;21.30;54.50;;;;;;6245195;23;20170;-90
2023/09/30 01:01:11;;;;;;;0.97;0.57;;;21.20;54.50;;;;;;6246140;23;20240;-91
2023/09/30 01:03:40;;;;;;;1.03;0.93;;;21.20;54.60;;;;;;6233059;23;20163;-91
2023/09/30 01:06:09;;;;;;;0.30;0.30;;;21.20;54.60;;;;;;6245111;23;20173;-90
2023/09/30 01:08:39;;;;;;;0.60;0.50;;;21.20;54.70;;;;;;6245750;23;20175;-89
2023/09/30 01:11:08;;;;;;;2.75;0.40;;;21.20;54.80;;;;;;6218953;23;20632;-90
2023/09/30 01:13:38;;;;;;;0.20;0.20;;;21.20;54.80;;;;;;6246899;23;20190;-90
2023/09/30 01:16:09;;;;;;;0.73;0.40;;;21.20;54.90;;;;;;6246413;23;20254;-89
2023/09/30 01:18:42;;;;;;;0.20;0.20;;;21.20;54.80;;;;;;6245311;23;20167;-91
2023/09/30 01:21:12;;;;;;;2.00;0.73;;;21.20;54.80;;;;;;6246294;23;20166;-92
2023/09/30 01:23:43;;;;;;;0.95;0.85;;;21.10;54.80;;;;;;6246018;23;20206;-91
2023/09/30 01:26:14;;;;;;;1.17;1.07;;;21.10;54.80;;;;;;6244874;23;20190;-90
2023/09/30 01:28:43;;;;;;;0.70;0.43;;;21.20;54.90;;;;;;6220082;23;20668;-90
2023/09/30 01:31:12;;;;;;;0.73;0.50;;;21.10;54.90;;;;;;6246244;23;20186;-91
2023/09/30 01:33:41;;;;;;;0.50;0.37;;;21.10;55.00;;;;;;6245232;23;20532;-90
2023/09/30 01:36:09;;;;;;;0.20;0.20;;;21.10;55.00;;;;;;6245322;23;20193;-89
2023/09/30 01:38:38;;;;;;;0.30;0.30;;;21.10;55.10;;;;;;6245039;23;20173;-90
2023/09/30 01:41:08;;;;;;;1.00;0.40;;;21.10;55.10;;;;;;6245925;23;20174;-91
2023/09/30 01:43:37;;;;;;;0.30;0.30;;;21.00;55.20;;;;;;6246757;23;20180;-91
2023/09/30 01:46:06;;;;;;;0.28;0.28;;;21.10;55.20;;;;;;6245379;23;20232;-90
2023/09/30 01:48:34;;;;;;;0.20;0.20;;;21.00;55.30;;;;;;6246011;23;20198;-89
2023/09/30 01:51:03;;;;;;;0.30;0.30;;;21.00;55.30;;;;;;6245212;23;20194;-91
2023/09/30 01:53:32;;;;;;;0.60;0.30;;;21.00;55.40;;;;;;6245659;23;20690;-90
2023/09/30 01:56:00;;;;;;;0.63;0.63;;;21.00;55.60;;;;;;6245240;23;20182;-89
2023/09/30 01:58:30;;;;;;;1.13;0.87;;;21.00;55.60;;;;;;6246496;23;20225;-90
2023/09/30 02:01:04;;;;;;;0.37;0.33;;;21.00;55.60;;;;;;6218295;23;20194;-92
2023/09/30 02:03:32;;;;;;;3.63;0.63;;;20.90;55.50;;;;;;6246264;23;20158;-92
2023/09/30 02:06:01;;;;;;;0.40;0.40;;;20.90;55.70;;;;;;6245644;23;20249;-90
2023/09/30 02:08:30;;;;;;;2.23;0.67;;;20.90;55.70;;;;;;6245905;23;20166;-90
2023/09/30 02:10:58;;;;;;;0.50;0.50;;;20.90;55.70;;;;;;6247072;23;20177;-90
2023/09/30 02:13:27;;;;;;;1.20;1.07;;;20.90;55.70;;;;;;6249010;23;20166;-91
2023/09/30 02:15:57;;;;;;;0.57;0.40;;;20.90;55.80;;;;;;6248421;23;20294;-91
2023/09/30 02:18:27;;;;;;;0.20;0.20;;;20.90;55.80;;;;;;6249192;23;20159;-89
2023/09/30 02:20:56;;;;;;;0.47;0.40;;;20.90;55.90;;;;;;6264617;23;20174;-92
2023/09/30 02:23:24;;;;;;;0.40;0.40;;;20.90;55.90;;;;;;6269305;23;20197;-90
2023/09/30 02:25:54;;;;;;;0.60;0.60;;;20.80;56.00;;;;;;6270298;23;20205;-91
2023/09/30 02:28:22;;;;;;;0.43;0.43;;;20.80;56.00;;;;;;6245576;23;20242;-92
2023/09/30 02:30:52;;;;;;;0.50;0.40;;;20.80;55.90;;;;;;6268966;23;20194;-91
2023/09/30 02:33:22;;;;;;;0.40;0.40;;;20.80;56.00;;;;;;6268874;23;20194;-89
2023/09/30 02:35:51;;;;;;;0.30;0.30;;;20.80;56.00;;;;;;6267022;23;20194;-91
2023/09/30 02:38:20;;;;;;;0.50;0.40;;;20.80;56.10;;;;;;6267322;23;20227;-91
2023/09/30 02:40:49;;;;;;;0.30;0.30;;;20.80;56.00;;;;;;6266764;23;20226;-90
2023/09/30 02:43:18;;;;;;;0.20;0.20;;;20.80;56.10;;;;;;6257785;23;20179;-90
2023/09/30 02:45:47;;;;;;;1.13;0.53;;;20.80;56.10;;;;;;6248156;23;20167;-89
2023/09/30 02:48:16;;;;;;;0.50;0.50;;;20.70;56.20;;;;;;6248344;23;20189;-91
2023/09/30 02:50:46;;;;;;;0.17;0.17;;;20.80;56.20;;;;;;6247541;23;20177;-91
2023/09/30 02:53:15;;;;;;;0.33;0.33;;;20.80;56.80;;;;;;6248771;23;20166;-93
2023/09/30 02:55:44;;;;;;;2.37;0.90;;;20.80;56.10;;;;;;6247269;23;20229;-89
2023/09/30 02:58:14;;;;;;;0.93;0.67;;;20.80;56.10;;;;;;6248140;23;20174;-89
2023/09/30 03:00:43;;;;;;;0.30;0.30;;;20.70;56.10;;;;;;6235950;23;20249;-88
2023/09/30 03:03:12;;;;;;;1.03;0.93;;;20.70;56.10;;;;;;6247945;23;20228;-91
2023/09/30 03:05:41;;;;;;;0.27;0.27;;;20.70;56.20;;;;;;6245576;23;20178;-90
2023/09/30 03:08:11;;;;;;;0.53;0.53;;;20.70;56.30;;;;;;6248224;23;20170;-89
2023/09/30 03:10:40;;;;;;;1.17;0.80;;;20.70;56.20;;;;;;6247423;23;20165;-89
2023/09/30 03:13:09;;;;;;;0.20;0.20;;;20.70;56.30;;;;;;6247231;23;20526;-91
2023/09/30 03:15:38;;;;;;;1.17;0.40;;;20.70;56.40;;;;;;6246597;23;20198;-91
2023/09/30 03:18:07;;;;;;;0.53;0.53;;;20.70;57.20;;;;;;6247705;23;20253;-91
2023/09/30 03:20:39;;;;;;;0.30;0.30;;;20.70;56.50;;;;;;6244478;23;20230;-89
2023/09/30 03:23:08;;;;;;;3.77;2.03;;;20.60;56.50;;;;;;6245076;23;20242;-92
2023/09/30 03:25:38;;;;;;;0.43;0.43;;;20.60;56.50;;;;;;6246559;23;20175;-90
2023/09/30 03:28:07;;;;;;;0.53;0.53;;;20.60;56.50;;;;;;6222112;23;20177;-91
2023/09/30 03:30:36;;;;;;;0.43;0.43;;;20.60;56.70;;;;;;6246627;23;20201;-90
2023/09/30 03:33:05;;;;;;;0.50;0.50;;;20.50;56.60;;;;;;6247254;23;20249;-92
2023/09/30 03:35:36;;;;;;;0.50;0.43;;;20.50;56.80;;;;;;6246547;23;20276;-89
2023/09/30 03:38:06;;;;;;;0.80;0.80;;;20.50;56.80;;;;;;6246640;23;20186;-89
2023/09/30 03:40:38;;;;;;;0.83;0.30;;;20.40;56.80;;;;;;6247388;23;20215;-89
2023/09/30 03:43:08;;;;;;;0.93;0.77;;;20.50;57.00;;;;;;6221868;23;20897;-91
2023/09/30 03:45:39;;;;;;;2.13;0.67;;;20.40;57.00;;;;;;6246606;23;20177;-90
2023/09/30 03:48:08;;;;;;;1.17;0.50;;;20.40;56.90;;;;;;6247791;23;20174;-90
2023/09/30 03:50:37;;;;;;;0.63;0.57;;;20.30;57.10;;;;;;6220350;23;20174;-91
2023/09/30 03:53:07;;;;;;;1.03;0.53;;;20.30;57.20;;;;;;6247543;23;20174;-90
2023/09/30 03:55:36;;;;;;;0.90;0.67;;;20.30;57.20;;;;;;6246725;23;20205;-88
2023/09/30 03:58:07;;;;;;;0.37;0.33;;;20.30;57.20;;;;;;6247016;23;20249;-93
2023/09/30 04:00:35;;;;;;;1.17;0.70;;;20.20;57.20;;;;;;6245731;23;20161;-88
2023/09/30 04:03:05;;;;;;;0.40;0.40;;;20.20;57.20;;;;;;6246795;23;20167;-90
2023/09/30 04:05:36;;;;;;;0.30;0.30;;;20.20;57.20;;;;;;6246196;23;20184;-89
2023/09/30 04:08:05;;;;;;;1.90;1.13;;;20.20;57.20;;;;;;6246611;23;20799;-90
2023/09/30 04:10:34;;;;;;;0.30;0.30;;;20.20;57.20;;;;;;6246489;23;20170;-89
2023/09/30 04:13:03;;;;;;;0.97;0.83;;;20.20;57.30;;;;;;6246740;23;20170;-90
2023/09/30 04:15:34;;;;;;;3.30;1.23;;;20.20;57.30;;;;;;6245863;23;20672;-90
2023/09/30 04:18:06;;;;;;;0.83;0.40;;;20.10;57.30;;;;;;6246256;23;20233;-89
2023/09/30 04:20:35;;;;;;;1.13;0.73;;;20.10;57.30;;;;;;6246466;23;20205;-88
2023/09/30 04:23:06;;;;;;;0.50;0.50;;;20.10;57.30;;;;;;6245145;23;20163;-91
2023/09/30 04:25:35;;;;;;;2.73;1.10;;;20.10;57.30;;;;;;6246384;23;20169;-89
2023/09/30 04:28:04;;;;;;;1.17;1.07;;;20.10;57.40;;;;;;6246761;23;20169;-91
2023/09/30 04:30:34;;;;;;;0.87;0.50;;;20.10;57.40;;;;;;6246571;23;20209;-91
2023/09/30 04:33:04;;;;;;;0.30;0.30;;;20.10;57.40;;;;;;6245897;23;20170;-91
2023/09/30 04:35:35;;;;;;;0.60;0.37;;;20.10;57.50;;;;;;6246485;23;20201;-90
2023/09/30 04:38:04;;;;;;;0.93;0.40;;;20.00;57.50;;;;;;6245862;23;20167;-89
2023/09/30 04:40:33;;;;;;;0.37;0.33;;;20.10;58.10;;;;;;6219512;23;20167;-89
2023/09/30 04:43:02;;;;;;;0.20;0.20;;;20.10;57.50;;;;;;6245420;23;20171;-91
2023/09/30 04:45:31;;;;;;;1.13;1.03;;;20.00;57.50;;;;;;6243808;23;20174;-89
2023/09/30 04:48:02;;;;;;;0.40;0.40;;;20.00;57.60;;;;;;6245193;23;20197;-90
2023/09/30 04:50:31;;;;;;;0.40;0.40;;;20.00;57.60;;;;;;6245655;23;20488;-89
2023/09/30 04:53:00;;;;;;;0.30;0.30;;;20.00;57.60;;;;;;6245509;23;20679;-90
2023/09/30 04:55:28;;;;;;;0.30;0.30;;;20.00;57.70;;;;;;6245961;23;20273;-89
2023/09/30 04:57:57;;;;;;;0.50;0.50;;;20.00;57.80;;;;;;6246993;23;20170;-90
2023/09/30 05:00:27;;;;;;;0.37;0.37;;;20.00;57.80;;;;;;6247234;23;20171;-90
2023/09/30 05:02:58;;;;;;;0.37;0.30;;;20.00;57.80;;;;;;6244831;23;20611;-90
2023/09/30 05:05:29;;;;;;;0.93;0.73;;;20.10;57.90;;;;;;6221253;23;20185;-92
2023/09/30 05:07:58;;;;;;;4.00;2.33;;;20.10;57.90;;;;;;6245559;23;20166;-92
2023/09/30 05:10:27;;;;;;;0.80;0.50;;;20.10;57.90;;;;;;6219964;23;20630;-91
2023/09/30 05:12:57;;;;;;;0.40;0.40;;;20.10;57.90;;;;;;6246214;23;20550;-90
2023/09/30 05:15:25;;;;;;;1.17;1.07;;;20.10;57.90;;;;;;6245961;23;20616;-91
2023/09/30 05:17:54;;;;;;;0.40;0.40;;;20.20;58.00;;;;;;6244522;23;20628;-91
2023/09/30 05:20:24;;;;;;;3.70;0.90;;;20.10;57.90;;;;;;6247973;23;20245;-93
2023/09/30 05:22:54;;;;;;;0.50;0.50;;;20.20;57.90;;;;;;6248309;23;20167;-94
2023/09/30 05:25:26;;;;;;;0.97;0.53;;;20.20;58.00;;;;;;6247335;23;20185;-90
2023/09/30 05:27:55;;;;;;;1.20;1.13;;;20.20;58.00;;;;;;6246760;23;20612;-91
2023/09/30 05:30:23;;;;;;;0.80;0.80;;;20.30;58.10;;;;;;6244395;23;20174;-92
2023/09/30 05:32:54;;;;;;;0.77;0.70;;;20.30;58.20;;;;;;6245351;23;20198;-90
2023/09/30 05:35:23;;;;;;;1.53;1.33;;;20.30;58.30;;;;;;6246681;23;20514;-92
2023/09/30 05:37:54;;;;;;;0.57;0.30;;;20.40;58.70;;;;;;6246672;23;20479;-92
2023/09/30 05:40:26;;;;;;;1.20;0.98;;;20.40;58.60;;;;;;6246631;23;20362;-92
2023/09/30 05:42:57;;;;;;;0.40;0.40;;;20.40;58.60;;;;;;6218852;23;20648;-87
2023/09/30 05:45:28;;;;;;;1.20;0.70;;;20.50;58.60;;;;;;6245842;23;20209;-92
2023/09/30 05:48:02;;;;;;;0.70;0.70;;;20.50;58.60;;;;;;6248176;23;20170;-89
2023/09/30 05:50:31;;;;;;;2.90;0.40;;;20.50;58.70;;;;;;6247406;23;20193;-90
2023/09/30 05:53:01;;;;;;;1.10;0.93;;;20.50;58.60;;;;;;6245742;23;20444;-90
2023/09/30 05:55:30;;;;;;;0.83;0.83;;;20.60;58.90;;;;;;6246689;23;20700;-89
2023/09/30 05:58:00;;;;;;;0.30;0.30;;;20.60;58.80;;;;;;6246149;23;20213;-92
2023/09/30 06:00:30;;;;;;;0.97;0.57;;;20.70;58.60;;;;;;6245623;23;20245;-89
2023/09/30 06:03:00;;;;;;;0.65;0.52;;;20.70;58.70;;;;;;6249283;23;20159;-94
2023/09/30 06:05:30;;;;;;;0.85;0.75;;;20.80;58.60;;;;;;6248185;23;20170;-93
2023/09/30 06:08:05;;;;;;;1.13;0.82;;;20.80;58.60;;;;;;6251398;23;20173;-94
2023/09/30 06:10:34;;;;;;;0.30;0.30;;;20.90;58.50;;;;;;6249300;23;20165;-93
2023/09/30 06:13:05;;;;;;;1.08;0.70;;;20.90;58.50;;;;;;6251911;23;20190;-91
2023/09/30 06:15:34;;;;;;;1.48;1.00;;;21.00;58.50;;;;;;6249834;23;20178;-95
2023/09/30 06:18:04;;;;;;;1.23;1.13;;;21.10;58.50;;;;;;6245199;23;20406;-90
2023/09/30 06:20:33;;;;;;;0.75;0.75;;;21.20;58.80;;;;;;6218810;23;20158;-87
2023/09/30 06:23:03;;;;;;;0.57;0.57;;;21.20;58.70;;;;;;6219746;23;20170;-90
2023/09/30 06:25:33;;;;;;;0.70;0.70;;;21.20;58.70;;;;;;6245455;23;20155;-88
2023/09/30 06:28:03;;;;;;;0.25;0.25;;;21.30;58.70;;;;;;6245688;23;20175;-90
2023/09/30 06:30:33;;;;;;;0.63;0.63;;;21.40;58.70;;;;;;6244950;23;20487;-88
2023/09/30 06:33:04;;;;;;;3.72;1.55;;;21.50;58.90;;;;;;6220118;23;20175;-88
2023/09/30 06:35:37;;;;;;;0.55;0.52;;;21.50;58.60;;;;;;6243797;23;20240;-87
2023/09/30 06:38:07;;;;;;;2.45;1.50;;;21.60;58.70;;;;;;6242702;23;20202;-90
2023/09/30 06:40:37;;;;;;;0.73;0.65;;;21.70;58.80;;;;;;6245418;23;20171;-89
2023/09/30 06:43:08;;;;;;;3.92;0.57;;;21.80;58.60;;;;;;6245772;23;20600;-87
2023/09/30 06:45:41;;;;;;;1.20;1.00;;;21.80;58.60;;;;;;6243457;23;20220;-86
2023/09/30 06:48:12;;;;;;;0.57;0.57;;;21.90;58.70;;;;;;6245716;23;20523;-91
2023/09/30 06:50:45;;;;;;;0.60;0.60;;;22.00;58.70;;;;;;6233233;23;20181;-91
2023/09/30 06:53:16;;;;;;;5.18;1.10;;;22.10;58.70;;;;;;6246392;23;20228;-90
2023/09/30 06:55:45;;;;;;;1.13;0.75;;;22.10;58.50;;;;;;6243563;23;20212;-88
2023/09/30 06:58:14;;;;;;;4.45;0.95;;;22.20;58.30;;;;;;6246700;23;20209;-89
2023/09/30 07:00:43;;;;;;;1.60;0.93;;;22.30;58.00;;;;;;6245697;23;20174;-87
2023/09/30 07:03:12;;;;;;;0.80;0.80;;;22.30;57.20;;;;;;6247751;23;20198;-89
2023/09/30 07:05:42;;;;;;;1.25;0.77;;;22.40;57.30;;;;;;6246299;23;20723;-90
2023/09/30 07:08:11;;;;;;;1.65;1.30;;;22.40;57.00;;;;;;6220672;23;20193;-88
2023/09/30 07:10:41;;;;;;;0.50;0.50;;;22.50;57.10;;;;;;6247378;23;20194;-87
2023/09/30 07:13:10;;;;;;;2.03;1.23;;;22.60;57.00;;;;;;6246873;23;20493;-88
2023/09/30 07:15:39;;;;;;;2.95;1.00;;;22.60;56.70;;;;;;6246125;23;20177;-88
2023/09/30 07:18:08;;;;;;;2.25;1.30;;;22.80;57.30;;;;;;6221253;23;20190;-88
2023/09/30 07:20:36;;;;;;;0.63;0.55;;;22.80;56.50;;;;;;6246860;23;20176;-88
2023/09/30 07:23:05;;;;;;;2.63;1.00;;;22.90;56.40;;;;;;6246803;23;20175;-89
2023/09/30 07:25:48;;;;;;;3.33;1.50;;;23.00;56.10;;;;;;6246508;23;20198;-90
2023/09/30 07:28:18;;;;;;;1.13;0.60;;;23.10;56.10;;;;;;6247362;23;20165;-92
2023/09/30 07:30:47;;;;;;;0.40;0.40;;;23.20;56.00;;;;;;6246202;23;20181;-90
2023/09/30 07:33:18;;;;;;;0.50;0.50;;;23.30;55.20;;;;;;6247192;23;20236;-87
2023/09/30 07:35:47;;;;;;;9.70;1.63;;;23.40;55.10;;;;;;6220407;23;20162;-89
2023/09/30 07:38:16;;;;;;;0.57;0.57;;;23.50;55.10;;;;;;6247041;23;20245;-89
2023/09/30 07:40:45;;;;;;;3.97;0.70;;;23.60;55.10;;;;;;6244931;23;20592;-90
2023/09/30 07:43:17;;;;;;;1.10;1.00;;;23.70;55.00;;;;;;6246288;23;20170;-89
2023/09/30 07:45:46;;;;;;;5.43;2.10;;;23.80;54.60;;;;;;6245530;23;20165;-89
2023/09/30 07:48:14;;;;;;;5.00;1.23;;;23.90;54.50;;;;;;6245113;23;20166;-87
2023/09/30 07:50:43;;;;;;;2.10;0.98;;;24.00;54.30;;;;;;6246380;23;20223;-92
2023/09/30 07:53:13;;;;;;;3.67;1.30;;;24.00;54.00;;;;;;6250390;23;20195;-90
2023/09/30 07:55:41;;;;;;;0.45;0.45;;;24.10;53.90;;;;;;6246722;23;20180;-91
2023/09/30 07:58:10;;;;;;;0.60;0.43;;;24.20;53.90;;;;;;6247640;23;20201;-90
2023/09/30 08:00:40;;;;;;;14.00;1.30;;;24.30;53.60;;;;;;6246916;23;20498;-88
2023/09/30 08:03:13;;;;;;;0.60;0.55;;;24.40;53.20;;;;;;6247122;23;20159;-91
2023/09/30 08:05:42;;;;;;;1.02;0.95;;;24.50;53.20;;;;;;6246268;23;20173;-90
2023/09/30 08:08:10;;;;;;;3.80;1.38;;;24.60;53.20;;;;;;6245364;23;20166;-91
2023/09/30 08:10:39;;;;;;;1.02;0.60;;;24.70;52.40;;;;;;6246069;23;20166;-91
2023/09/30 08:13:09;;;;;;;0.50;0.50;;;24.80;52.60;;;;;;6246661;23;20173;-90
2023/09/30 08:15:37;;;;;;;0.60;0.60;;;24.90;52.40;;;;;;6245678;23;20246;-88
2023/09/30 08:18:08;;;;;;;2.80;0.77;;;25.00;52.30;;;;;;6245338;23;20195;-86
2023/09/30 08:20:37;;;;;;;0.60;0.60;;;25.10;51.50;;;;;;6245729;23;20240;-87
2023/09/30 08:23:06;;;;;;;0.40;0.40;;;25.10;51.30;;;;;;6247399;23;20163;-93
2023/09/30 08:25:34;;;;;;;1.05;0.50;;;25.30;51.00;;;;;;6245197;23;20170;-84
2023/09/30 08:28:03;;;;;;;0.68;0.63;;;25.30;50.20;;;;;;6244644;23;20635;-87
2023/09/30 08:30:34;;;;;;;1.48;0.75;;;25.40;50.00;;;;;;6243532;23;20167;-86
2023/09/30 08:33:05;;;;;;;1.95;1.50;;;25.50;49.60;;;;;;6246365;23;20217;-88
2023/09/30 08:35:38;;;;;;;0.85;0.68;;;25.60;49.70;;;;;;6245031;23;20257;-88
2023/09/30 08:38:07;;;;;;;0.40;0.40;;;25.70;49.90;;;;;;6245251;23;20197;-92
2023/09/30 08:40:35;;;;;;;1.10;0.77;;;25.80;49.40;;;;;;6245383;23;20171;-89
2023/09/30 08:43:06;;;;;;;1.08;1.00;;;25.80;49.30;;;;;;6245429;23;20249;-88
2023/09/30 08:45:39;;;;;;;0.68;0.68;;;25.90;48.50;;;;;;6245677;23;20169;-91
2023/09/30 08:48:08;;;;;;;2.95;1.00;;;26.00;46.50;;;;;;6246549;23;20220;-90
2023/09/30 08:50:42;;;;;;;1.42;0.80;;;26.10;46.80;;;;;;6245234;23;20271;-88
2023/09/30 08:53:12;;;;;;;1.85;1.00;;;26.20;46.70;;;;;;6246369;23;20193;-90
2023/09/30 08:55:43;;;;;;;1.40;0.80;;;26.20;44.10;;;;;;6244089;23;20430;-88
2023/09/30 08:58:13;;;;;;;1.45;1.02;;;26.30;43.70;;;;;;6245642;23;20213;-91
2023/09/30 09:00:41;;;;;;;0.70;0.60;;;26.40;44.10;;;;;;6245225;23;20253;-88
2023/09/30 09:03:10;;;;;;;0.63;0.45;;;26.50;44.40;;;;;;6246401;23;20205;-88
2023/09/30 09:05:40;;;;;;;3.60;1.02;;;26.50;44.30;;;;;;6216165;23;20170;-88
2023/09/30 09:08:09;;;;;;;0.40;0.40;;;26.70;44.70;;;;;;6244875;23;20162;-89
2023/09/30 09:10:54;;;;;;;1.20;0.65;;;26.80;44.80;;;;;;6244009;23;20178;-90
2023/09/30 09:13:23;;;;;;;0.45;0.45;;;26.80;45.20;;;;;;6246524;23;20154;-89
2023/09/30 09:16:07;;;;;;;0.35;0.35;;;26.90;44.50;;;;;;6219343;23;20167;-87
2023/09/30 09:18:37;;;;;;;1.05;0.50;;;27.00;44.90;;;;;;6243596;23;20241;-89
2023/09/30 09:21:16;;;;;;;0.98;0.63;;;27.00;45.10;;;;;;6244729;23;20662;-87
2023/09/30 09:23:46;;;;;;;2.10;0.60;;;27.10;44.40;;;;;;6243625;23;20189;-88
2023/09/30 09:26:17;;;;;;;0.45;0.45;;;27.10;43.80;;;;;;6242293;23;20714;-86
2023/09/30 09:28:48;;;;;;;0.82;0.68;;;27.20;43.10;;;;;;6244295;23;20192;-87
2023/09/30 09:31:23;;;;;;;1.25;0.60;;;27.30;42.50;;;;;;6242620;23;20154;-88
2023/09/30 09:33:53;;;;;;;0.32;0.32;;;27.30;42.60;;;;;;6244893;23;20155;-87
2023/09/30 09:36:40;;;;;;;1.13;1.00;;;27.40;42.70;;;;;;6244597;23;20179;-88
2023/09/30 09:39:12;;;;;;;0.65;0.50;;;27.40;41.70;;;;;;6243373;23;20265;-86
2023/09/30 09:41:51;;;;;;;0.90;0.82;;;27.40;42.10;;;;;;6243823;23;20169;-87
2023/09/30 09:44:22;;;;;;;2.40;0.52;;;27.50;41.80;;;;;;6218813;23;20158;-88
2023/09/30 09:46:52;;;;;;;0.95;0.63;;;27.60;42.30;;;;;;6219763;23;20478;-89
2023/09/30 09:49:22;;;;;;;2.05;0.98;;;27.60;41.60;;;;;;6244077;23;20170;-88
2023/09/30 09:51:53;;;;;;;8.07;1.13;;;27.70;41.80;;;;;;6244446;23;20170;-87
2023/09/30 09:54:23;;;;;;;0.40;0.40;;;27.60;40.90;;;;;;6243953;23;20193;-90
2023/09/30 09:56:57;;;;;;;0.77;0.75;;;27.80;41.50;;;;;;6242204;23;20170;-85
2023/09/30 09:59:27;;;;;;;0.50;0.45;;;27.80;41.30;;;;;;6241413;23;20532;-88
2023/09/30 10:01:56;;;;;;;1.30;0.95;;;27.90;40.80;;;;;;6242991;23;20217;-88
2023/09/30 10:04:25;;;;;;;0.95;0.85;;;27.90;40.60;;;;;;6245136;23;20253;-89
2023/09/30 10:06:56;;;;;;;1.02;0.80;;;28.00;40.80;;;;;;6243698;23;20173;-87
2023/09/30 10:09:26;;;;;;;0.45;0.30;;;28.10;41.20;;;;;;6244109;23;20220;-86
2023/09/30 10:11:59;;;;;;;1.00;0.90;;;28.10;41.40;;;;;;6242661;23;20497;-86
2023/09/30 10:14:32;;;;;;;1.30;0.43;;;28.20;41.30;;;;;;6246193;23;20213;-88
2023/09/30 10:17:01;;;;;;;1.02;0.65;;;28.20;41.20;;;;;;6241736;23;20166;-90
2023/09/30 10:19:30;;;;;;;0.55;0.55;;;28.30;40.50;;;;;;6245264;23;20199;-90
2023/09/30 10:22:23;;;;;;;0.70;0.70;;;28.30;39.70;;;;;;6239944;23;20281;-86
2023/09/30 10:24:53;;;;;;;0.50;0.50;;;28.30;39.70;;;;;;6266360;23;20159;-89
2023/09/30 10:27:39;;;;;;;1.33;0.80;;;28.40;40.40;;;;;;6265050;23;20190;-88
2023/09/30 10:30:13;;;;;;;1.80;0.70;;;28.40;39.90;;;;;;6266438;23;20205;-90
2023/09/30 10:33:11;;;;;;;0.43;0.40;;;28.50;40.40;;;;;;6244035;23;20167;-90
2023/09/30 10:35:48;;;;;;;0.55;0.50;;;28.50;39.90;;;;;;6267587;23;20154;-91
2023/09/30 10:38:53;;;;;;;0.52;0.50;;;28.60;40.00;;;;;;6263011;23;20177;-89
2023/09/30 10:41:50;;;;;;;0.50;0.50;;;28.60;39.20;;;;;;6263891;23;20166;-92
2023/09/30 10:44:35;;;;;;;0.40;0.40;;;28.70;39.90;;;;;;6268656;23;20163;-95
2023/09/30 10:47:37;;;;;;;1.20;1.10;;;28.80;40.10;;;;;;6262785;22;20186;-91
2023/09/30 10:50:46;;;;;;;2.00;0.73;;;28.80;40.20;;;;;;6254901;23;20238;-93
2023/09/30 10:53:15;;;;;;;0.85;0.60;;;28.80;40.10;;;;;;6249233;23;20697;-89
2023/09/30 10:55:46;;;;;;;1.10;0.73;;;28.80;39.50;;;;;;6247325;23;20545;-88
2023/09/30 10:58:15;;;;;;;1.27;0.80;;;28.90;39.90;;;;;;6248139;23;20163;-84
2023/09/30 11:00:54;;;;;;;0.50;0.50;;;28.90;40.10;;;;;;6247452;23;20198;-90
2023/09/30 11:03:23;;;;;;;1.08;0.57;;;29.00;39.50;;;;;;6247967;23;20194;-90
2023/09/30 11:05:53;;;;;;;1.30;0.57;;;29.00;39.10;;;;;;6246321;23;20163;-92
2023/09/30 11:08:45;;;;;;;0.43;0.38;;;29.00;39.00;;;;;;6247434;23;20167;-94
2023/09/30 11:11:15;;;;;;;0.82;0.60;;;29.10;39.70;;;;;;6248072;23;20155;-91
2023/09/30 11:13:44;;;;;;;0.28;0.28;;;29.10;39.00;;;;;;6248198;23;20177;-88
2023/09/30 11:16:13;;;;;;;0.40;0.40;;;29.10;38.10;;;;;;6223258;23;20170;-89
2023/09/30 11:18:42;;;;;;;2.15;0.73;;;29.20;38.50;;;;;;6219649;23;20468;-89
2023/09/30 11:21:12;;;;;;;0.70;0.68;;;29.20;38.00;;;;;;6246878;23;20679;-90
2023/09/30 11:23:43;;;;;;;1.00;0.80;;;29.20;38.20;;;;;;6246409;23;20159;-89
2023/09/30 11:26:13;;;;;;;0.68;0.68;;;29.30;38.20;;;;;;6246446;23;20185;-88
2023/09/30 11:28:45;;;;;;;0.30;0.30;;;29.30;38.10;;;;;;6245423;23;20249;-89
2023/09/30 11:31:15;;;;;;;3.10;0.80;;;29.30;38.20;;;;;;6246682;23;20206;-90
2023/09/30 11:34:00;;;;;;;0.35;0.35;;;29.30;37.80;;;;;;6245161;23;20238;-89
2023/09/30 11:36:30;;;;;;;1.63;0.50;;;29.30;37.60;;;;;;6246473;23;20154;-92
2023/09/30 11:39:02;;;;;;;1.13;1.00;;;29.40;37.60;;;;;;6246234;23;20206;-89
2023/09/30 11:41:39;;;;;;;1.05;0.70;;;29.40;37.70;;;;;;6220434;23;20537;-88
2023/09/30 11:44:12;;;;;;;0.60;0.60;;;29.40;38.10;;;;;;6246719;23;20237;-88
2023/09/30 11:46:55;;;;;;;1.50;1.17;;;29.50;37.60;;;;;;6245647;23;20190;-89
2023/09/30 11:49:29;;;;;;;0.68;0.65;;;29.50;37.90;;;;;;6220883;23;20178;-89
2023/09/30 11:51:59;;;;;;;0.50;0.50;;;29.50;37.70;;;;;;6244676;23;20169;-87
2023/09/30 11:54:37;;;;;;;1.10;1.02;;;29.50;37.10;;;;;;6244747;23;20178;-85
2023/09/30 11:57:09;;;;;;;1.23;0.82;;;29.50;37.00;;;;;;6245241;23;20166;-86
2023/09/30 11:59:41;;;;;;;0.43;0.43;;;29.50;37.10;;;;;;6247252;23;20278;-86
2023/09/30 12:02:10;;;;;;;0.73;0.73;;;29.50;37.00;;;;;;6245092;23;20155;-86
2023/09/30 12:04:43;;;;;;;0.20;0.20;;;29.50;37.30;;;;;;6244531;23;20159;-87
2023/09/30 12:07:13;;;;;;;0.98;0.88;;;29.60;37.60;;;;;;6244580;23;20167;-89
2023/09/30 12:09:42;;;;;;;1.40;1.17;;;29.60;37.50;;;;;;6243989;23;20205;-87
2023/09/30 12:12:14;;;;;;;0.50;0.35;;;29.60;37.80;;;;;;6243909;23;20198;-88
2023/09/30 12:14:44;;;;;;;1.40;0.50;;;29.60;37.60;;;;;;6241913;23;20485;-88
2023/09/30 12:17:14;;;;;;;0.70;0.60;;;29.70;37.70;;;;;;6218268;23;20185;-89
2023/09/30 12:19:43;;;;;;;0.43;0.30;;;29.70;37.60;;;;;;6244437;23;20534;-89
2023/09/30 12:22:11;;;;;;;1.15;1.00;;;29.70;37.50;;;;;;6246091;23;20171;-92
2023/09/30 12:24:42;;;;;;;0.82;0.73;;;29.70;36.60;;;;;;6244860;23;20172;-89
2023/09/30 12:27:13;;;;;;;1.20;0.60;;;29.70;36.30;;;;;;6245446;23;20175;-91
2023/09/30 12:29:42;;;;;;;0.85;0.63;;;29.70;36.70;;;;;;6245477;23;20166;-88
2023/09/30 12:32:12;;;;;;;1.50;1.08;;;29.70;36.60;;;;;;6242303;23;20174;-87
2023/09/30 12:34:40;;;;;;;0.30;0.30;;;29.70;36.50;;;;;;6245640;23;20171;-91
2023/09/30 12:37:21;;;;;;;1.05;0.95;;;29.70;36.30;;;;;;6245728;23;20173;-92
2023/09/30 12:39:51;;;;;;;0.40;0.40;;;29.70;36.70;;;;;;6248112;23;20189;-94
2023/09/30 12:42:23;;;;;;;0.95;0.85;;;29.80;37.00;;;;;;6248752;23;20161;-93
2023/09/30 12:44:52;;;;;;;1.02;0.93;;;29.80;37.00;;;;;;6247849;23;20250;-92
2023/09/30 12:47:22;;;;;;;1.65;1.55;;;29.80;36.80;;;;;;6245895;23;20205;-91
2023/09/30 12:49:51;;;;;;;8.25;2.30;;;29.80;37.00;;;;;;6244625;23;20175;-91
2023/09/30 12:52:19;;;;;;;0.75;0.47;;;29.80;37.10;;;;;;6245669;23;20169;-91
2023/09/30 12:54:48;;;;;;;0.75;0.75;;;29.80;37.00;;;;;;6246253;23;20174;-89
2023/09/30 12:57:17;;;;;;;0.60;0.50;;;29.80;36.70;;;;;;6247990;23;20163;-92
2023/09/30 12:59:50;;;;;;;0.50;0.50;;;29.80;36.20;;;;;;6246930;23;20550;-92
2023/09/30 13:02:19;;;;;;;4.75;0.55;;;29.80;37.10;;;;;;6219142;23;20178;-91
2023/09/30 13:04:49;;;;;;;1.23;0.85;;;29.80;37.00;;;;;;6245599;23;20174;-90
2023/09/30 13:07:18;;;;;;;2.03;0.73;;;29.80;37.00;;;;;;6246066;23;20151;-92